Time;durP1;ratioP1;P1;durP2;ratioP2;P2;SDS_P1;SDS_P2;PMS_P1;PMS_P2;Temp;Humidity;BMP_temperature;BMP_pressure;BME280_temperature;BME280_humidity;BME280_pressure;Samples;Min_cycle;Max_cycle;Signal;HPM_P1;HPM_P2
2023/01/27 00:00:24;;;;;;;0.00;0.00;;;;;;;1.82;100.00;101905.31;4940682;28;20112;-72
2023/01/27 00:02:52;;;;;;;0.10;0.10;;;;;;;1.76;100.00;101893.34;4945994;28;20038;-74
2023/01/27 00:05:18;;;;;;;0.00;0.00;;;;;;;1.75;100.00;101905.13;4945920;28;20032;-73
2023/01/27 00:07:46;;;;;;;0.10;0.10;;;;;;;1.70;100.00;101913.75;4945299;28;20090;-73
2023/01/27 00:10:19;;;;;;;0.10;0.10;;;;;;;1.71;100.00;101915.44;4947519;28;20051;-74
2023/01/27 00:15:32;;;;;;;0.10;0.10;;;;;;;1.62;100.00;101912.91;4947950;28;20070;-72
2023/01/27 00:17:59;;;;;;;0.00;0.00;;;;;;;1.61;100.00;101919.31;4937906;28;20055;-72
2023/01/27 00:26:05;;;;;;;0.00;0.00;;;;;;;1.90;100.00;101903.44;4945846;28;19921;-72
2023/01/27 00:28:31;;;;;;;0.00;0.00;;;;;;;1.91;100.00;101905.13;4932522;29;20019;-74
2023/01/27 00:30:58;;;;;;;0.10;0.10;;;;;;;1.86;100.00;101901.25;4945747;28;20700;-72
2023/01/27 00:33:25;;;;;;;0.00;0.00;;;;;;;1.81;100.00;101903.59;4948829;28;20059;-73
2023/01/27 00:35:57;;;;;;;0.10;0.10;;;;;;;1.75;100.00;101899.75;4925292;29;20035;-72
2023/01/27 00:38:22;;;;;;;0.00;0.00;;;;;;;1.69;100.00;101901.25;4937471;28;21068;-74
2023/01/27 00:41:14;;;;;;;0.10;0.10;;;;;;;1.60;100.00;101896.06;4937823;28;20122;-74
2023/01/27 00:43:33;;;;;;;0.10;0.10;;;;;;;1.57;100.00;101905.34;4946266;28;20058;-73
2023/01/27 00:45:59;;;;;;;0.00;0.00;;;;;;;1.46;100.00;101887.66;4923583;28;20118;-73
2023/01/27 00:48:24;;;;;;;0.08;0.08;;;;;;;1.45;100.00;101893.22;4952797;28;20031;-73
2023/01/27 00:50:50;;;;;;;0.10;0.10;;;;;;;1.39;100.00;101894.75;4926877;28;20040;-75
2023/01/27 00:53:15;;;;;;;0.03;0.03;;;;;;;1.33;100.00;101898.09;4930995;28;20027;-74
2023/01/27 00:55:40;;;;;;;0.00;0.00;;;;;;;1.30;100.00;101902.00;4932399;28;21461;-72
2023/01/27 00:58:06;;;;;;;0.10;0.10;;;;;;;1.21;100.00;101901.16;4925362;28;20059;-74
2023/01/27 01:00:31;;;;;;;0.00;0.00;;;;;;;1.13;100.00;101901.13;4931262;28;20066;-73
2023/01/27 01:02:57;;;;;;;0.10;0.10;;;;;;;1.02;100.00;101885.28;4934676;28;20138;-76
2023/01/27 01:05:22;;;;;;;0.00;0.00;;;;;;;0.97;100.00;101879.56;4908758;28;20403;-72
2023/01/27 01:07:48;;;;;;;0.00;0.00;;;;;;;1.04;100.00;101886.81;4935024;28;20393;-74
2023/01/27 01:10:13;;;;;;;0.00;0.00;;;;;;;1.08;100.00;101887.34;4923522;29;20035;-72
2023/01/27 01:12:39;;;;;;;0.00;0.00;;;;;;;1.09;100.00;101888.16;4930583;28;20039;-71
2023/01/27 01:15:04;;;;;;;0.00;0.00;;;;;;;1.09;100.00;101875.53;4940505;28;20035;-74
2023/01/27 01:17:30;;;;;;;0.00;0.00;;;;;;;1.13;100.00;101874.19;4946229;28;20128;-73
2023/01/27 01:19:55;;;;;;;0.10;0.10;;;;;;;1.09;100.00;101875.53;4934405;28;20614;-74
2023/01/27 01:22:21;;;;;;;0.10;0.10;;;;;;;1.04;100.00;101875.19;4940552;28;20058;-73
2023/01/27 01:24:46;;;;;;;0.10;0.10;;;;;;;1.04;100.00;101877.91;4939960;28;20140;-72
2023/01/27 01:27:12;;;;;;;0.00;0.00;;;;;;;1.01;100.00;101870.97;4949506;28;20478;-74
2023/01/27 01:29:37;;;;;;;0.00;0.00;;;;;;;1.00;100.00;101857.69;4942994;28;20027;-71
2023/01/27 01:32:03;;;;;;;0.10;0.10;;;;;;;1.03;100.00;101868.94;4931450;29;20039;-70
2023/01/27 01:34:28;;;;;;;0.00;0.00;;;;;;;0.96;100.00;101862.53;4931881;29;20504;-72
2023/01/27 01:36:54;;;;;;;0.00;0.00;;;;;;;0.87;100.00;101853.63;4945602;28;20032;-73
2023/01/27 01:39:19;;;;;;;0.00;0.00;;;;;;;0.89;100.00;101848.06;4951843;28;20042;-71
2023/01/27 01:41:45;;;;;;;0.00;0.00;;;;;;;0.90;100.00;101841.66;4928006;28;20027;-71
2023/01/27 01:44:25;;;;;;;0.00;0.00;;;;;;;0.87;100.00;101853.63;4950200;28;20031;-74
2023/01/27 01:46:51;;;;;;;0.10;0.10;;;;;;;0.85;100.00;101855.63;4947273;28;20076;-72
2023/01/27 01:49:22;;;;;;;0.00;0.00;;;;;;;0.92;100.00;101854.97;4947941;28;20110;-73
2023/01/27 01:51:53;;;;;;;0.10;0.10;;;;;;;0.96;100.00;101850.94;4941099;28;20124;-73
2023/01/27 01:54:26;;;;;;;0.00;0.00;;;;;;;0.97;100.00;101847.25;4938360;28;20034;-72
2023/01/27 01:56:57;;;;;;;0.10;0.10;;;;;;;0.94;100.00;101834.13;4943302;28;20066;-72
2023/01/27 01:59:30;;;;;;;0.10;0.10;;;;;;;0.91;100.00;101831.75;4952427;28;20066;-72
2023/01/27 02:01:58;;;;;;;0.00;0.00;;;;;;;0.95;100.00;101838.47;4931697;28;20031;-73
2023/01/27 02:04:30;;;;;;;0.00;0.00;;;;;;;0.96;100.00;101846.38;4946138;28;20023;-72
2023/01/27 02:07:04;;;;;;;0.10;0.10;;;;;;;0.95;100.00;101846.56;4947948;28;20049;-72
2023/01/27 02:09:29;;;;;;;0.10;0.10;;;;;;;0.99;100.00;101853.28;4931896;28;20019;-72
2023/01/27 02:11:57;;;;;;;0.10;0.10;;;;;;;0.91;100.00;101853.31;4956166;28;20095;-71
2023/01/27 02:14:22;;;;;;;0.10;0.10;;;;;;;0.87;100.00;101853.63;4944581;28;20063;-72
2023/01/27 02:16:50;;;;;;;0.00;0.00;;;;;;;0.82;100.00;101845.22;4945027;28;20058;-72
2023/01/27 02:19:24;;;;;;;0.10;0.10;;;;;;;0.82;100.00;101855.97;4947613;28;20031;-71
2023/01/27 02:21:54;;;;;;;0.00;0.00;;;;;;;0.82;100.00;101849.75;4948014;28;20378;-72
2023/01/27 02:24:24;;;;;;;0.00;0.00;;;;;;;0.84;100.00;101848.56;4945831;28;20035;-72
2023/01/27 02:26:50;;;;;;;0.00;0.00;;;;;;;0.82;100.00;101839.81;4943785;28;20216;-71
2023/01/27 02:29:15;;;;;;;0.00;0.00;;;;;;;0.85;100.00;101844.88;4944800;28;20074;-72
2023/01/27 02:31:41;;;;;;;0.00;0.00;;;;;;;0.87;100.00;101842.84;4946673;28;20031;-72
2023/01/27 02:34:10;;;;;;;0.10;0.10;;;;;;;0.95;100.00;101844.72;4939030;28;20073;-72
2023/01/27 02:36:57;;;;;;;0.00;0.00;;;;;;;1.02;100.00;101850.25;4949096;28;20075;-74
2023/01/27 02:39:28;;;;;;;0.00;0.00;;;;;;;1.10;100.00;101847.56;4949860;28;20031;-72
2023/01/27 02:41:56;;;;;;;0.10;0.10;;;;;;;1.12;100.00;101842.03;4943215;28;21822;-73
2023/01/27 02:44:22;;;;;;;0.10;0.10;;;;;;;1.10;100.00;101854.84;4946231;28;20026;-72
2023/01/27 02:46:47;;;;;;;0.10;0.10;;;;;;;1.10;100.00;101858.34;4942312;28;20359;-73
2023/01/27 02:49:13;;;;;;;0.00;0.00;;;;;;;1.06;100.00;101846.22;4944583;28;20725;-72
2023/01/27 02:51:38;;;;;;;0.00;0.00;;;;;;;1.11;100.00;101849.28;4932738;28;20414;-72
2023/01/27 02:54:04;;;;;;;0.10;0.10;;;;;;;1.29;100.00;101850.94;4930074;28;20031;-73
2023/01/27 02:56:30;;;;;;;0.00;0.00;;;;;;;1.53;100.00;101855.44;4946315;28;20521;-72
2023/01/27 02:58:56;;;;;;;0.10;0.10;;;;;;;1.72;100.00;101846.16;4926121;28;20031;-72
2023/01/27 03:01:23;;;;;;;0.10;0.10;;;;;;;1.92;100.00;101847.44;4928965;29;20031;-73
2023/01/27 03:03:50;;;;;;;0.00;0.00;;;;;;;2.09;100.00;101837.44;4925862;28;20031;-72
2023/01/27 03:06:16;;;;;;;0.10;0.10;;;;;;;2.21;100.00;101837.88;4948395;28;20493;-71
2023/01/27 03:08:42;;;;;;;0.00;0.00;;;;;;;2.36;100.00;101845.22;4935523;28;20087;-72
2023/01/27 03:11:08;;;;;;;0.10;0.10;;;;;;;2.44;100.00;101845.19;4947660;28;20039;-72
2023/01/27 03:13:36;;;;;;;0.00;0.00;;;;;;;2.53;100.00;101836.03;4945857;28;20037;-73
2023/01/27 03:18:48;;;;;;;0.00;0.00;;;;;;;2.73;100.00;101838.25;4936474;28;20054;-72
2023/01/27 03:21:16;;;;;;;0.00;0.00;;;;;;;2.79;100.00;101832.16;4941305;28;20389;-72
2023/01/27 03:23:42;;;;;;;0.00;0.00;;;;;;;2.80;100.00;101828.41;4932436;28;20183;-73
2023/01/27 03:26:08;;;;;;;0.10;0.10;;;;;;;2.85;100.00;101831.44;4941652;28;20027;-71
2023/01/27 03:28:34;;;;;;;0.10;0.10;;;;;;;2.89;100.00;101832.75;4946302;28;20098;-72
2023/01/27 03:31:02;;;;;;;0.00;0.00;;;;;;;2.84;100.00;101824.31;4920050;28;20552;-72
2023/01/27 03:33:27;;;;;;;0.10;0.10;;;;;;;2.92;100.00;101826.97;4934403;29;20027;-72
2023/01/27 03:46:49;;;;;;;0.00;0.00;;;;;;;2.86;100.00;101822.31;4930387;29;20429;-73
2023/01/27 03:49:14;;;;;;;0.10;0.10;;;;;;;2.85;100.00;101817.91;4941293;28;20043;-73
2023/01/27 03:51:39;;;;;;;0.00;0.00;;;;;;;2.74;100.00;101800.25;4940672;28;20023;-73
2023/01/27 03:54:05;;;;;;;0.10;0.10;;;;;;;2.77;100.00;101812.56;4952318;28;20023;-73
2023/01/27 03:56:31;;;;;;;0.10;0.10;;;;;;;2.74;100.00;101818.31;4929709;28;20417;-71
2023/01/27 03:58:56;;;;;;;0.10;0.10;;;;;;;2.80;100.00;101828.41;4951256;28;20027;-74
2023/01/27 04:01:23;;;;;;;0.00;0.00;;;;;;;2.81;100.00;101819.28;4904341;28;20433;-74
2023/01/27 04:09:37;;;;;;;0.10;0.10;;;;;;;2.78;100.00;101830.47;4901110;29;20055;-73
2023/01/27 04:12:05;;;;;;;0.00;0.00;;;;;;;2.68;100.00;101819.06;4927414;28;20043;-74
2023/01/27 04:14:41;;;;;;;0.10;0.10;;;;;;;2.78;100.00;101819.66;4947179;28;20414;-73
2023/01/27 04:17:14;;;;;;;0.00;0.00;;;;;;;2.76;100.00;101822.53;4938375;28;20033;-74
2023/01/27 04:19:40;;;;;;;0.00;0.00;;;;;;;2.71;100.00;101810.59;4943611;28;20030;-74
2023/01/27 04:22:07;;;;;;;0.00;0.00;;;;;;;2.67;100.00;101811.97;4938936;28;20118;-73
2023/01/27 04:24:32;;;;;;;0.00;0.00;;;;;;;2.57;100.00;101814.88;4946909;28;20034;-74
2023/01/27 04:27:00;;;;;;;0.00;0.00;;;;;;;2.31;100.00;101813.38;4941217;28;20027;-74
2023/01/27 04:29:29;;;;;;;0.10;0.10;;;;;;;2.14;100.00;101800.97;4944951;28;20027;-74
2023/01/27 04:31:56;;;;;;;0.00;0.00;;;;;;;2.29;100.00;101804.59;4942761;28;20019;-73
2023/01/27 04:34:22;;;;;;;0.00;0.00;;;;;;;2.50;100.00;101809.38;4940100;28;20075;-73
2023/01/27 04:36:48;;;;;;;0.10;0.10;;;;;;;2.66;100.00;101812.97;4945565;28;20023;-73
2023/01/27 04:39:14;;;;;;;0.00;0.00;;;;;;;2.76;100.00;101809.03;4957695;28;20086;-75
2023/01/27 04:41:40;;;;;;;0.00;0.00;;;;;;;2.88;100.00;101809.44;4932166;29;20198;-72
2023/01/27 04:44:06;;;;;;;0.00;0.00;;;;;;;2.96;100.00;101800.41;4944382;28;20620;-73
2023/01/27 04:46:33;;;;;;;0.00;0.00;;;;;;;2.97;100.00;101797.53;4944977;28;20065;-73
2023/01/27 04:48:59;;;;;;;0.00;0.00;;;;;;;3.07;100.00;101785.66;4943015;28;20413;-73
2023/01/27 04:51:24;;;;;;;0.00;0.00;;;;;;;3.08;100.00;101787.31;4919819;28;20122;-72
2023/01/27 04:53:51;;;;;;;0.00;0.00;;;;;;;3.12;100.00;101785.94;4944304;28;20168;-72
2023/01/27 04:56:32;;;;;;;0.10;0.10;;;;;;;3.14;100.00;101789.31;4934642;28;20059;-73
2023/01/27 04:59:03;;;;;;;0.00;0.00;;;;;;;3.21;100.00;101792.91;4935465;28;20036;-74
2023/01/27 05:01:29;;;;;;;0.00;0.00;;;;;;;3.21;100.00;101792.91;4934223;28;20034;-73
2023/01/27 05:03:55;;;;;;;0.00;0.00;;;;;;;3.19;100.00;101788.75;4934279;28;20035;-73
2023/01/27 05:06:21;;;;;;;0.10;0.10;;;;;;;3.21;100.00;101798.31;4947216;28;20114;-73
2023/01/27 05:08:47;;;;;;;0.00;0.00;;;;;;;3.21;100.00;101797.50;4922590;28;20039;-74
2023/01/27 05:11:13;;;;;;;0.00;0.00;;;;;;;3.22;100.00;101804.59;4927436;29;20046;-73
2023/01/27 05:13:39;;;;;;;0.00;0.00;;;;;;;3.21;100.00;101801.03;4946684;28;20023;-73
2023/01/27 05:16:12;;;;;;;0.00;0.00;;;;;;;3.18;100.00;101803.28;4951625;28;20031;-71
2023/01/27 05:18:39;;;;;;;0.10;0.10;;;;;;;3.20;100.00;101807.47;4942514;28;20272;-71
2023/01/27 05:21:05;;;;;;;0.00;0.00;;;;;;;3.21;100.00;101816.44;4952512;28;20107;-71
2023/01/27 05:23:34;;;;;;;0.00;0.00;;;;;;;3.16;100.00;101819.69;4945092;28;20058;-71
2023/01/27 05:26:04;;;;;;;0.00;0.00;;;;;;;3.19;100.00;101813.06;4953682;28;20053;-72
2023/01/27 05:28:30;;;;;;;0.00;0.00;;;;;;;3.17;100.00;101813.25;4944612;28;20452;-72
2023/01/27 05:31:04;;;;;;;0.00;0.00;;;;;;;3.15;100.00;101801.78;4946114;28;20111;-72
2023/01/27 05:33:30;;;;;;;0.10;0.10;;;;;;;3.19;100.00;101822.03;4953112;28;20544;-73
2023/01/27 05:36:00;;;;;;;0.10;0.10;;;;;;;3.25;100.00;101812.34;4942314;28;20114;-73
2023/01/27 05:38:25;;;;;;;0.00;0.00;;;;;;;3.28;100.00;101812.78;4949642;28;20086;-71
2023/01/27 05:40:56;;;;;;;0.10;0.10;;;;;;;3.29;100.00;101811.78;4944226;28;20035;-70
2023/01/27 05:43:22;;;;;;;0.00;0.00;;;;;;;3.32;100.00;101816.81;4945415;28;20043;-71
2023/01/27 05:45:47;;;;;;;0.10;0.10;;;;;;;3.29;100.00;101810.94;4942313;28;20026;-71
2023/01/27 05:48:13;;;;;;;0.00;0.00;;;;;;;3.26;100.00;101806.75;4931766;28;20046;-72
2023/01/27 05:50:38;;;;;;;0.00;0.00;;;;;;;3.24;100.00;101802.53;4938586;28;20063;-71
2023/01/27 05:53:03;;;;;;;0.03;0.03;;;;;;;3.29;100.00;101806.38;4937451;28;20038;-71
2023/01/27 05:55:29;;;;;;;0.00;0.00;;;;;;;3.34;100.00;101802.28;4943369;28;20085;-71
2023/01/27 05:57:54;;;;;;;0.10;0.10;;;;;;;3.36;100.00;101813.75;4918674;28;20194;-71
2023/01/27 06:00:20;;;;;;;0.00;0.00;;;;;;;3.35;100.00;101809.38;4950716;28;20031;-70
2023/01/27 06:02:45;;;;;;;0.00;0.00;;;;;;;3.34;100.00;101802.28;4935863;28;20470;-71
2023/01/27 06:05:11;;;;;;;0.00;0.00;;;;;;;3.36;100.00;101809.19;4939992;28;20030;-71
2023/01/27 06:07:36;;;;;;;0.00;0.00;;;;;;;3.32;100.00;101806.00;4933669;29;20027;-72
2023/01/27 06:10:02;;;;;;;0.00;0.00;;;;;;;3.36;100.00;101805.63;4941525;28;20031;-71
2023/01/27 06:12:27;;;;;;;0.00;0.00;;;;;;;3.35;100.00;101804.81;4946385;28;20031;-71
2023/01/27 06:14:54;;;;;;;0.00;0.00;;;;;;;3.35;100.00;101806.69;4934147;29;20027;-72
2023/01/27 06:17:19;;;;;;;0.00;0.00;;;;;;;3.35;100.00;101809.38;4947466;28;20078;-72
2023/01/27 06:19:45;;;;;;;0.00;0.00;;;;;;;3.31;100.00;101804.34;4940185;28;20035;-70
2023/01/27 06:22:10;;;;;;;0.00;0.00;;;;;;;3.35;100.00;101803.97;4939733;28;20058;-70
2023/01/27 06:24:36;;;;;;;0.00;0.00;;;;;;;3.28;100.00;101799.28;4941883;28;20033;-71
2023/01/27 06:27:01;;;;;;;0.00;0.00;;;;;;;3.26;100.00;101804.03;4942624;28;20043;-71
2023/01/27 06:29:26;;;;;;;0.10;0.10;;;;;;;3.17;100.00;101791.63;4938916;28;20026;-70
2023/01/27 06:31:52;;;;;;;0.00;0.00;;;;;;;3.12;100.00;101799.44;4933374;28;20090;-71
2023/01/27 06:34:17;;;;;;;0.00;0.00;;;;;;;3.09;100.00;101799.81;4941535;28;20110;-70
2023/01/27 06:36:45;;;;;;;0.00;0.00;;;;;;;3.00;100.00;101787.41;4926274;28;20042;-72
2023/01/27 06:39:11;;;;;;;0.00;0.00;;;;;;;2.94;100.00;101795.19;4933100;28;20063;-71
2023/01/27 06:41:37;;;;;;;0.00;0.00;;;;;;;2.83;100.00;101792.91;4916909;29;20054;-72
2023/01/27 06:44:02;;;;;;;0.00;0.00;;;;;;;2.84;100.00;101791.06;4931824;28;20165;-72
2023/01/27 06:46:28;;;;;;;0.00;0.00;;;;;;;2.74;100.00;101788.63;4916710;28;20470;-73
2023/01/27 06:48:53;;;;;;;0.00;0.00;;;;;;;2.64;100.00;101796.13;4933148;28;20095;-73
2023/01/27 06:51:19;;;;;;;0.10;0.10;;;;;;;2.63;100.00;101800.69;4921823;28;20125;-73
2023/01/27 06:53:44;;;;;;;0.10;0.10;;;;;;;2.68;100.00;101797.44;4946826;28;20043;-73
2023/01/27 06:56:09;;;;;;;0.00;0.00;;;;;;;2.76;100.00;101794.66;4943626;28;20060;-73
2023/01/27 06:58:35;;;;;;;0.10;0.10;;;;;;;2.70;100.00;101784.59;4925414;29;20031;-72
2023/01/27 07:01:02;;;;;;;0.00;0.00;;;;;;;2.59;100.00;101799.38;4938455;28;20390;-72
2023/01/27 07:03:28;;;;;;;0.00;0.00;;;;;;;2.44;100.00;101796.59;4935769;28;20031;-73
2023/01/27 07:06:10;;;;;;;0.00;0.00;;;;;;;2.35;100.00;101797.66;4917696;28;20020;-73
2023/01/27 07:08:45;;;;;;;;;;;;;;;;;;;;;
2023/01/27 07:11:21;;;;;;;0.10;0.10;;;;;;;2.57;100.00;101780.63;4944925;28;20023;-72
2023/01/27 07:13:54;;;;;;;0.00;0.00;;;;;;;2.69;100.00;101791.84;4912675;28;20074;-73
2023/01/27 07:16:19;;;;;;;0.00;0.00;;;;;;;2.73;100.00;101793.19;4946507;28;20390;-72
2023/01/27 07:18:45;;;;;;;0.00;0.00;;;;;;;2.86;100.00;101799.81;4933358;28;20039;-73
2023/01/27 07:21:11;;;;;;;0.00;0.00;;;;;;;3.05;100.00;101806.59;4913967;29;20054;-73
2023/01/27 07:23:37;;;;;;;0.10;0.10;;;;;;;3.14;100.00;101802.81;4916646;28;20504;-72
2023/01/27 07:26:02;;;;;;;0.10;0.10;;;;;;;3.26;100.00;101806.75;4947992;28;20063;-72
2023/01/27 07:28:30;;;;;;;0.00;0.00;;;;;;;3.31;100.00;101806.19;4926763;29;20031;-73
2023/01/27 07:31:00;;;;;;;0.00;0.00;;;;;;;3.14;100.00;101811.75;4923962;29;20035;-73
2023/01/27 07:33:25;;;;;;;0.00;0.00;;;;;;;3.19;100.00;101821.19;4948940;28;20019;-73
2023/01/27 07:35:51;;;;;;;0.00;0.00;;;;;;;3.17;100.00;101818.66;4927370;28;20028;-73
2023/01/27 07:38:16;;;;;;;0.00;0.00;;;;;;;3.27;100.00;101819.25;4934882;28;20034;-73
2023/01/27 07:40:42;;;;;;;0.00;0.00;;;;;;;3.37;100.00;101818.13;4921432;28;20304;-71
2023/01/27 07:43:09;;;;;;;0.00;0.00;;;;;;;3.42;100.00;101821.97;4945511;28;20023;-72
2023/01/27 07:45:34;;;;;;;0.00;0.00;;;;;;;3.43;100.00;101822.81;4936669;28;20039;-71
2023/01/27 07:48:07;;;;;;;0.00;0.00;;;;;;;3.42;100.00;101815.72;4926612;28;20071;-72
2023/01/27 07:50:34;;;;;;;0.00;0.00;;;;;;;3.42;100.00;101818.44;4939565;28;20031;-71
2023/01/27 07:53:02;;;;;;;0.00;0.00;;;;;;;3.46;100.00;101822.44;4940188;28;20055;-73
2023/01/27 07:55:28;;;;;;;0.00;0.00;;;;;;;3.41;100.00;101814.03;4945169;28;20027;-72
2023/01/27 07:57:53;;;;;;;0.00;0.00;;;;;;;3.36;100.00;101811.03;4945924;28;20055;-74
2023/01/27 08:00:20;;;;;;;0.10;0.10;;;;;;;3.31;100.00;101803.47;4941505;28;20054;-71
2023/01/27 08:02:56;;;;;;;0.00;0.00;;;;;;;3.27;100.00;101808.44;4940491;28;20023;-75
2023/01/27 08:05:23;;;;;;;0.00;0.00;;;;;;;3.11;100.00;101809.44;4934615;28;20035;-74
2023/01/27 08:07:49;;;;;;;0.00;0.00;;;;;;;3.00;100.00;101811.72;4938955;28;20031;-74
2023/01/27 08:10:16;;;;;;;0.10;0.10;;;;;;;3.00;100.00;101819.84;4922734;28;20158;-74
2023/01/27 08:12:43;;;;;;;0.00;0.00;;;;;;;2.96;100.00;101812.09;4939655;28;20037;-76
2023/01/27 08:15:08;;;;;;;0.10;0.10;;;;;;;3.02;100.00;101821.31;4934333;28;20035;-75
2023/01/27 08:17:34;;;;;;;0.00;0.00;;;;;;;3.09;100.00;101833.06;4932455;29;20034;-76
2023/01/27 08:19:59;;;;;;;0.10;0.10;;;;;;;3.12;100.00;101831.88;4948018;28;20433;-76
2023/01/27 08:22:27;;;;;;;0.00;0.00;;;;;;;3.19;100.00;101832.00;4944007;28;20043;-77
2023/01/27 08:24:52;;;;;;;0.00;0.00;;;;;;;3.19;100.00;101834.72;4941698;28;20086;-76
2023/01/27 08:27:18;;;;;;;0.00;0.00;;;;;;;3.30;100.00;101845.06;4916888;28;20019;-75
2023/01/27 08:29:43;;;;;;;0.10;0.10;;;;;;;3.38;100.00;101853.09;4927951;29;20032;-76
2023/01/27 08:32:09;;;;;;;0.00;0.00;;;;;;;3.40;100.00;101850.22;4923290;28;20054;-77
2023/01/27 08:34:36;;;;;;;0.10;0.10;;;;;;;3.45;100.00;101855.94;4944232;28;20470;-76
2023/01/27 08:37:02;;;;;;;0.00;0.00;;;;;;;3.47;100.00;101851.16;4938861;28;20037;-76
2023/01/27 08:39:28;;;;;;;0.00;0.00;;;;;;;3.53;100.00;101855.84;4936805;28;20019;-77
2023/01/27 08:41:53;;;;;;;0.10;0.10;;;;;;;3.54;100.00;101846.69;4948765;28;20030;-76
2023/01/27 08:44:18;;;;;;;0.00;0.00;;;;;;;3.60;100.00;101848.66;4937729;28;20059;-76
2023/01/27 08:46:44;;;;;;;0.10;0.10;;;;;;;3.71;100.00;101869.03;4936977;29;20035;-76
2023/01/27 08:49:09;;;;;;;0.00;0.00;;;;;;;3.80;100.00;101872.50;4937634;28;20405;-77
2023/01/27 08:51:35;;;;;;;0.00;0.00;;;;;;;3.80;100.00;101869.78;4930482;29;20027;-76
2023/01/27 08:54:01;;;;;;;0.00;0.00;;;;;;;3.83;100.00;101872.13;4931582;29;20126;-77
2023/01/27 08:56:26;;;;;;;0.00;0.00;;;;;;;3.86;100.00;101866.31;4940335;28;20082;-76
2023/01/27 08:58:52;;;;;;;0.00;0.00;;;;;;;3.89;100.00;101865.13;4946364;28;20470;-77
2023/01/27 09:01:19;;;;;;;0.00;0.00;;;;;;;3.93;100.00;101867.25;4951595;28;20034;-75
2023/01/27 09:03:44;;;;;;;0.00;0.00;;;;;;;3.96;100.00;101866.06;4943823;28;20032;-74
2023/01/27 09:06:11;;;;;;;0.00;0.00;;;;;;;3.91;100.00;101849.53;4932792;29;20058;-74
2023/01/27 09:08:37;;;;;;;0.00;0.00;;;;;;;4.10;100.00;101877.91;4941077;28;20051;-73
2023/01/27 09:11:16;;;;;;;0.00;0.00;;;;;;;4.10;100.00;101869.78;4930033;29;20063;-73
2023/01/27 09:13:42;;;;;;;0.00;0.00;;;;;;;4.15;100.00;101883.59;4944015;28;20058;-75
2023/01/27 09:16:08;;;;;;;0.00;0.00;;;;;;;4.18;100.00;101888.63;4937550;28;20019;-74
2023/01/27 09:18:34;;;;;;;0.00;0.00;;;;;;;4.31;100.00;101896.94;4944509;28;20193;-75
2023/01/27 09:21:04;;;;;;;0.10;0.10;;;;;;;4.35;100.00;101900.94;4945340;28;20520;-75
2023/01/27 09:23:30;;;;;;;0.00;0.00;;;;;;;4.37;100.00;101890.75;4937932;28;20023;-76
2023/01/27 09:25:56;;;;;;;0.10;0.10;;;;;;;4.44;100.00;101901.69;4939659;28;20016;-74
2023/01/27 09:28:21;;;;;;;0.00;0.00;;;;;;;4.51;100.00;101907.16;4943242;28;20042;-75
2023/01/27 09:30:47;;;;;;;0.00;0.00;;;;;;;4.56;100.00;101904.75;4923420;28;20058;-75
2023/01/27 09:33:13;;;;;;;0.00;0.00;;;;;;;4.63;100.00;101897.53;4931596;29;20035;-74
2023/01/27 09:35:50;;;;;;;0.00;0.00;;;;;;;4.78;100.00;101905.63;4934953;28;20031;-74
2023/01/27 09:38:19;;;;;;;0.00;0.00;;;;;;;4.88;100.00;101908.03;4941135;28;20704;-74
2023/01/27 09:40:58;;;;;;;0.10;0.10;;;;;;;4.94;100.00;101901.84;4941953;28;20028;-74
2023/01/27 09:43:55;;;;;;;0.00;0.00;;;;;;;5.13;100.00;101910.38;4947991;28;20031;-74
2023/01/27 09:46:38;;;;;;;0.00;0.00;;;;;;;5.32;100.00;101907.00;4942240;28;20027;-73
2023/01/27 09:49:25;;;;;;;0.10;0.10;;;;;;;5.40;100.00;101901.47;4956031;28;20422;-75
2023/01/27 09:52:01;;;;;;;0.00;0.00;;;;;;;5.53;100.00;101899.88;4947946;28;20034;-75
2023/01/27 09:54:40;;;;;;;0.00;0.00;;;;;;;5.66;100.00;101888.28;4958701;28;20058;-74
2023/01/27 09:57:35;;;;;;;0.00;0.00;;;;;;;5.75;100.00;101893.38;4961753;28;20043;-73
2023/01/27 10:00:11;;;;;;;0.00;0.00;;;;;;;5.80;100.00;101889.22;4936542;28;20042;-73
2023/01/27 10:02:46;;;;;;;0.00;0.00;;;;;;;5.97;100.00;101893.31;4935422;28;20043;-73
2023/01/27 10:05:29;;;;;;;0.00;0.00;;;;;;;6.09;100.00;101899.88;4936770;28;20037;-74
2023/01/27 10:07:54;;;;;;;0.00;0.00;;;;;;;6.22;100.00;101901.00;4945050;28;20035;-73
2023/01/27 10:10:50;;;;;;;0.00;0.00;;;;;;;6.29;100.00;101888.28;4939612;28;20125;-73
2023/01/27 10:13:21;;;;;;;0.10;0.10;;;;;;;6.46;100.00;101905.91;4943451;28;20118;-72
2023/01/27 10:15:57;;;;;;;0.00;0.00;;;;;;;6.60;100.00;101905.97;4936737;28;20051;-74
2023/01/27 10:19:04;;;;;;;0.00;0.00;;;;;;;6.71;100.00;101905.38;4939970;28;20106;-74
2023/01/27 10:22:04;;;;;;;0.00;0.00;;;;;;;6.95;100.00;101900.44;4920756;28;20050;-73
2023/01/27 10:24:35;;;;;;;0.10;0.10;;;;;;;7.35;100.00;101908.66;4960701;28;20537;-74
2023/01/27 10:27:23;;;;;;;0.00;0.00;;;;;;;7.83;100.00;101913.88;4938403;28;20011;-74
2023/01/27 10:30:03;;;;;;;0.00;0.00;;;;;;;7.98;100.00;101907.38;4939552;28;20055;-77
2023/01/27 10:32:52;;;;;;;0.00;0.00;;;;;;;8.01;100.00;101917.84;4943799;28;20023;-75
2023/01/27 10:35:23;;;;;;;0.00;0.00;;;;;;;7.74;100.00;101920.63;4941264;28;20032;-75
2023/01/27 10:38:00;;;;;;;0.00;0.00;;;;;;;7.84;100.00;101918.31;4944567;28;20041;-77
2023/01/27 10:40:35;;;;;;;0.00;0.00;;;;;;;7.97;100.00;101911.16;4945413;28;20473;-76
2023/01/27 10:43:00;;;;;;;;;;;;;;;8.27;100.00;101910.69;4942299;28;20050;-77
2023/01/27 10:45:37;;;;;;;0.10;0.10;;;;;;;8.54;100.00;101906.84;4940566;28;20360;-76
2023/01/27 10:48:08;;;;;;;0.00;0.00;;;;;;;8.83;100.00;101915.47;4941932;28;20031;-76
2023/01/27 10:50:44;;;;;;;0.10;0.10;;;;;;;8.87;100.00;101905.81;4933523;28;20122;-78
2023/01/27 10:53:18;;;;;;;0.00;0.00;;;;;;;8.81;100.00;101890.31;4932839;28;20039;-78
2023/01/27 10:56:07;;;;;;;0.00;0.00;;;;;;;8.91;100.00;101901.59;4944420;28;20051;-76
2023/01/27 10:58:59;;;;;;;0.00;0.00;;;;;;;8.91;100.00;101887.97;4930525;28;20070;-77
2023/01/27 11:01:32;;;;;;;0.00;0.00;;;;;;;8.94;100.00;101899.50;4932968;28;20508;-77
2023/01/27 11:04:13;;;;;;;0.00;0.00;;;;;;;8.80;100.00;101887.81;4944479;28;20117;-76
2023/01/27 11:06:41;;;;;;;0.00;0.00;;;;;;;8.78;100.00;101887.22;4936287;28;20043;-75
2023/01/27 11:09:28;;;;;;;0.00;0.00;;;;;;;8.97;100.00;101896.34;4946437;28;20035;-74
2023/01/27 11:11:59;;;;;;;0.00;0.00;;;;;;;9.24;100.00;101892.38;4929713;28;20458;-74
2023/01/27 11:14:28;;;;;;;0.00;0.00;;;;;;;9.38;100.00;101889.53;4937371;28;20378;-76
2023/01/27 11:17:36;;;;;;;0.00;0.00;;;;;;;9.48;100.00;101894.50;4932863;28;20168;-76
2023/01/27 11:20:20;;;;;;;0.10;0.10;;;;;;;9.53;100.00;101892.75;4939612;28;20043;-74
2023/01/27 11:23:16;;;;;;;0.10;0.10;;;;;;;9.54;100.00;101902.63;4944842;28;20481;-76
2023/01/27 11:25:49;;;;;;;0.00;0.00;;;;;;;9.30;100.00;101889.81;4953661;28;20462;-76
2023/01/27 11:28:33;;;;;;;0.00;0.00;;;;;;;9.01;100.00;101894.81;4938737;28;20027;-76
2023/01/27 11:31:21;;;;;;;0.10;0.10;;;;;;;8.88;100.00;101901.22;4944707;28;20035;-75
2023/01/27 11:34:18;;;;;;;0.00;0.00;;;;;;;8.67;100.00;101894.19;4938227;28;20031;-77
2023/01/27 11:36:49;;;;;;;0.00;0.00;;;;;;;8.73;100.00;101887.84;4928315;28;20090;-77
2023/01/27 11:39:18;;;;;;;0.00;0.00;;;;;;;8.75;100.00;101872.13;4938811;28;20039;-76
2023/01/27 11:41:51;;;;;;;0.00;0.00;;;;;;;8.83;100.00;101877.28;4940393;28;20031;-77
2023/01/27 11:44:35;;;;;;;0.10;0.10;;;;;;;8.99;100.00;101880.56;4942337;28;20039;-77
2023/01/27 11:47:03;;;;;;;0.00;0.00;;;;;;;9.08;100.00;101877.38;4948378;28;20027;-75
2023/01/27 11:49:34;;;;;;;0.00;0.00;;;;;;;9.41;100.00;101872.72;4943202;28;20042;-74
2023/01/27 11:52:04;;;;;;;0.00;0.00;;;;;;;9.69;100.00;101865.94;4951527;28;20516;-73
2023/01/27 11:54:38;;;;;;;0.00;0.00;;;;;;;9.88;100.00;101853.97;4954332;28;20305;-74
2023/01/27 11:57:03;;;;;;;0.00;0.00;;;;;;;10.31;100.00;101855.81;4950432;28;20039;-75
2023/01/27 11:59:37;;;;;;;0.00;0.00;;;;;;;10.57;100.00;101850.25;4941356;28;20474;-75
2023/01/27 12:02:05;;;;;;;0.10;0.10;;;;;;;11.03;100.00;101851.47;4950993;28;20065;-75
2023/01/27 12:04:37;;;;;;;0.00;0.00;;;;;;;11.64;100.00;101851.34;4948982;28;20023;-76